Elmore, Alabama
Current Conditions -  °F | °C
As of 1:58 AM on Thursday 23 Oct 2014 (Local Time) from KMXF Reporting Station
Clear Clear  
Wind Chill: 54°   Ceiling: Unl
Heat Index: 54°   Visibility: 10mi
Dew Point: 43°   Wind: 12mph
Humidity: 66%   Direction: 30°NNE
Pressure: 30.07"   Gusts: NA
Location:  32.54°N, 86.31°W
Report Text: KMXF 230658Z AUTO 03010KT 10SM CLR 12/06 A3007 RMK AO2 SLP185 T01240061
Loading
Personal Weather Stations






























Interactive Weather Map
Tropical Storm Tracking
New forecast layout! Learn more

10-Day Weather Forecast

Advertisements
Track Severe Weather on mobile